sensor_id;sensor_type;location;lat;lon;timestamp;temperature;humidity
28071;DHT22;15383;48.408;9.968;2023-06-19T00:00:40;21.60;59.50
28071;DHT22;15383;48.408;9.968;2023-06-19T00:03:24;21.60;59.40
28071;DHT22;15383;48.408;9.968;2023-06-19T00:06:06;22.10;59.60
28071;DHT22;15383;48.408;9.968;2023-06-19T00:08:35;21.50;59.50
28071;DHT22;15383;48.408;9.968;2023-06-19T00:11:09;21.50;59.50
28071;DHT22;15383;48.408;9.968;2023-06-19T00:14:04;21.60;59.60
28071;DHT22;15383;48.408;9.968;2023-06-19T00:16:39;21.50;59.60
28071;DHT22;15383;48.408;9.968;2023-06-19T00:19:08;21.50;59.50
28071;DHT22;15383;48.408;9.968;2023-06-19T00:21:54;21.50;59.50
28071;DHT22;15383;48.408;9.968;2023-06-19T00:24:28;21.50;59.60
28071;DHT22;15383;48.408;9.968;2023-06-19T00:26:54;21.90;59.80
28071;DHT22;15383;48.408;9.968;2023-06-19T00:29:20;21.50;59.80
28071;DHT22;15383;48.408;9.968;2023-06-19T00:31:49;21.50;59.90
28071;DHT22;15383;48.408;9.968;2023-06-19T00:34:30;21.40;59.80
28071;DHT22;15383;48.408;9.968;2023-06-19T00:36:58;21.50;60.00
28071;DHT22;15383;48.408;9.968;2023-06-19T00:39:52;21.50;60.00
28071;DHT22;15383;48.408;9.968;2023-06-19T00:45:04;21.50;60.20
28071;DHT22;15383;48.408;9.968;2023-06-19T00:47:33;21.50;60.50
28071;DHT22;15383;48.408;9.968;2023-06-19T00:50:08;21.50;60.60
28071;DHT22;15383;48.408;9.968;2023-06-19T00:55:47;21.40;60.50
28071;DHT22;15383;48.408;9.968;2023-06-19T00:58:44;21.40;60.60
28071;DHT22;15383;48.408;9.968;2023-06-19T01:01:12;21.40;60.80
28071;DHT22;15383;48.408;9.968;2023-06-19T01:09:57;21.40;60.80
28071;DHT22;15383;48.408;9.968;2023-06-19T01:12:46;21.40;61.00
28071;DHT22;15383;48.408;9.968;2023-06-19T01:15:20;21.40;61.00
28071;DHT22;15383;48.408;9.968;2023-06-19T01:18:00;21.40;61.00
28071;DHT22;15383;48.408;9.968;2023-06-19T01:20:38;21.40;61.00
28071;DHT22;15383;48.408;9.968;2023-06-19T01:23:33;21.40;61.20
28071;DHT22;15383;48.408;9.968;2023-06-19T01:26:05;21.40;61.20
28071;DHT22;15383;48.408;9.968;2023-06-19T01:28:44;21.40;61.30
28071;DHT22;15383;48.408;9.968;2023-06-19T01:31:31;21.40;61.40
28071;DHT22;15383;48.408;9.968;2023-06-19T01:33:59;21.40;61.40
28071;DHT22;15383;48.408;9.968;2023-06-19T01:36:45;21.40;61.50
28071;DHT22;15383;48.408;9.968;2023-06-19T01:39:47;21.40;61.50
28071;DHT22;15383;48.408;9.968;2023-06-19T01:42:13;21.40;61.70
28071;DHT22;15383;48.408;9.968;2023-06-19T01:45:05;21.40;61.50
28071;DHT22;15383;48.408;9.968;2023-06-19T01:47:41;21.40;61.70
28071;DHT22;15383;48.408;9.968;2023-06-19T01:50:15;21.30;61.50
28071;DHT22;15383;48.408;9.968;2023-06-19T01:53:01;21.30;61.50
28071;DHT22;15383;48.408;9.968;2023-06-19T01:55:27;21.40;61.80
28071;DHT22;15383;48.408;9.968;2023-06-19T01:57:56;21.30;61.80
28071;DHT22;15383;48.408;9.968;2023-06-19T02:00:42;21.30;61.70
28071;DHT22;15383;48.408;9.968;2023-06-19T02:03:30;21.30;61.90
28071;DHT22;15383;48.408;9.968;2023-06-19T02:05:56;21.30;61.90
28071;DHT22;15383;48.408;9.968;2023-06-19T02:09:04;21.30;62.00
28071;DHT22;15383;48.408;9.968;2023-06-19T02:11:30;21.30;62.10
28071;DHT22;15383;48.408;9.968;2023-06-19T02:13:56;21.30;62.10
28071;DHT22;15383;48.408;9.968;2023-06-19T02:16:22;21.30;61.90
28071;DHT22;15383;48.408;9.968;2023-06-19T02:18:48;21.30;62.00
28071;DHT22;15383;48.408;9.968;2023-06-19T02:21:22;21.30;62.00
28071;DHT22;15383;48.408;9.968;2023-06-19T02:23:50;21.30;62.00
28071;DHT22;15383;48.408;9.968;2023-06-19T02:26:16;21.30;62.20
28071;DHT22;15383;48.408;9.968;2023-06-19T02:31:42;21.30;62.20
28071;DHT22;15383;48.408;9.968;2023-06-19T02:34:08;21.30;62.10
28071;DHT22;15383;48.408;9.968;2023-06-19T02:36:56;21.30;62.10
28071;DHT22;15383;48.408;9.968;2023-06-19T02:39:24;21.30;61.90
28071;DHT22;15383;48.408;9.968;2023-06-19T02:44:42;21.30;62.30
28071;DHT22;15383;48.408;9.968;2023-06-19T02:47:08;21.30;62.20
28071;DHT22;15383;48.408;9.968;2023-06-19T02:49:47;21.30;62.30
28071;DHT22;15383;48.408;9.968;2023-06-19T02:52:22;21.30;62.30
28071;DHT22;15383;48.408;9.968;2023-06-19T02:54:48;21.30;62.50
28071;DHT22;15383;48.408;9.968;2023-06-19T02:57:29;21.30;62.40
28071;DHT22;15383;48.408;9.968;2023-06-19T02:59:55;21.30;62.50
28071;DHT22;15383;48.408;9.968;2023-06-19T03:02:31;21.30;62.30
28071;DHT22;15383;48.408;9.968;2023-06-19T03:05:12;21.30;62.50
28071;DHT22;15383;48.408;9.968;2023-06-19T03:07:44;21.30;62.30
28071;DHT22;15383;48.408;9.968;2023-06-19T03:10:14;21.20;62.10
28071;DHT22;15383;48.408;9.968;2023-06-19T03:12:40;21.20;62.00
28071;DHT22;15383;48.408;9.968;2023-06-19T03:15:08;21.30;61.90
28071;DHT22;15383;48.408;9.968;2023-06-19T03:18:07;21.30;61.80
28071;DHT22;15383;48.408;9.968;2023-06-19T03:20:55;21.30;61.80
28071;DHT22;15383;48.408;9.968;2023-06-19T03:23:46;21.30;61.80
28071;DHT22;15383;48.408;9.968;2023-06-19T03:26:12;21.50;62.00
28071;DHT22;15383;48.408;9.968;2023-06-19T03:28:50;21.20;61.70
28071;DHT22;15383;48.408;9.968;2023-06-19T03:31:16;21.20;61.70
28071;DHT22;15383;48.408;9.968;2023-06-19T03:33:42;21.20;61.80
28071;DHT22;15383;48.408;9.968;2023-06-19T03:36:10;21.20;62.50
28071;DHT22;15383;48.408;9.968;2023-06-19T03:38:36;21.20;61.70
28071;DHT22;15383;48.408;9.968;2023-06-19T03:41:05;21.20;61.70
28071;DHT22;15383;48.408;9.968;2023-06-19T03:43:45;21.20;61.80
28071;DHT22;15383;48.408;9.968;2023-06-19T03:46:14;21.20;61.80
28071;DHT22;15383;48.408;9.968;2023-06-19T03:48:40;21.20;62.00
28071;DHT22;15383;48.408;9.968;2023-06-19T03:51:08;21.20;62.10
28071;DHT22;15383;48.408;9.968;2023-06-19T03:53:34;21.20;62.20
28071;DHT22;15383;48.408;9.968;2023-06-19T03:56:00;21.20;62.20
28071;DHT22;15383;48.408;9.968;2023-06-19T03:58:26;21.20;62.20
28071;DHT22;15383;48.408;9.968;2023-06-19T04:01:01;21.20;62.40
28071;DHT22;15383;48.408;9.968;2023-06-19T04:03:26;21.20;62.50
28071;DHT22;15383;48.408;9.968;2023-06-19T04:06:05;21.20;62.50
28071;DHT22;15383;48.408;9.968;2023-06-19T04:08:34;21.20;62.60
28071;DHT22;15383;48.408;9.968;2023-06-19T04:11:08;21.20;62.70
28071;DHT22;15383;48.408;9.968;2023-06-19T04:13:34;21.20;62.70
28071;DHT22;15383;48.408;9.968;2023-06-19T04:16:03;21.20;62.70
28071;DHT22;15383;48.408;9.968;2023-06-19T04:18:34;21.20;62.80
28071;DHT22;15383;48.408;9.968;2023-06-19T04:21:15;21.20;62.70
28071;DHT22;15383;48.408;9.968;2023-06-19T04:23:41;21.20;62.80
28071;DHT22;15383;48.408;9.968;2023-06-19T04:26:07;21.20;62.80
28071;DHT22;15383;48.408;9.968;2023-06-19T04:31:32;21.20;63.20
28071;DHT22;15383;48.408;9.968;2023-06-19T04:34:33;21.20;63.10
28071;DHT22;15383;48.408;9.968;2023-06-19T04:37:04;21.10;63.10
28071;DHT22;15383;48.408;9.968;2023-06-19T04:39:30;21.20;63.30
28071;DHT22;15383;48.408;9.968;2023-06-19T04:42:16;21.20;63.20
28071;DHT22;15383;48.408;9.968;2023-06-19T04:44:49;21.20;64.10
28071;DHT22;15383;48.408;9.968;2023-06-19T04:47:34;21.20;63.80
28071;DHT22;15383;48.408;9.968;2023-06-19T04:50:00;21.20;64.10
28071;DHT22;15383;48.408;9.968;2023-06-19T04:52:29;21.20;63.70
28071;DHT22;15383;48.408;9.968;2023-06-19T04:55:15;21.20;63.50
28071;DHT22;15383;48.408;9.968;2023-06-19T04:58:09;21.20;63.70
28071;DHT22;15383;48.408;9.968;2023-06-19T05:00:43;21.20;63.20
28071;DHT22;15383;48.408;9.968;2023-06-19T05:03:12;21.20;63.30
28071;DHT22;15383;48.408;9.968;2023-06-19T05:05:45;21.20;63.80
28071;DHT22;15383;48.408;9.968;2023-06-19T05:08:12;21.20;64.10
28071;DHT22;15383;48.408;9.968;2023-06-19T05:10:40;21.20;64.30
28071;DHT22;15383;48.408;9.968;2023-06-19T05:13:06;21.10;64.30
28071;DHT22;15383;48.408;9.968;2023-06-19T05:15:32;21.10;64.30
28071;DHT22;15383;48.408;9.968;2023-06-19T05:18:09;21.20;64.20
28071;DHT22;15383;48.408;9.968;2023-06-19T05:20:38;21.20;64.30
28071;DHT22;15383;48.408;9.968;2023-06-19T05:23:04;21.20;64.20
28071;DHT22;15383;48.408;9.968;2023-06-19T05:25:35;21.20;64.60
28071;DHT22;15383;48.408;9.968;2023-06-19T05:28:05;21.20;65.00
28071;DHT22;15383;48.408;9.968;2023-06-19T05:30:39;21.10;64.80
28071;DHT22;15383;48.408;9.968;2023-06-19T05:33:07;21.10;65.00
28071;DHT22;15383;48.408;9.968;2023-06-19T05:35:43;21.20;64.90
28071;DHT22;15383;48.408;9.968;2023-06-19T05:38:19;21.10;64.60
28071;DHT22;15383;48.408;9.968;2023-06-19T05:41:01;21.20;64.40
28071;DHT22;15383;48.408;9.968;2023-06-19T05:43:27;21.20;64.40
28071;DHT22;15383;48.408;9.968;2023-06-19T05:45:53;21.20;64.90
28071;DHT22;15383;48.408;9.968;2023-06-19T05:48:24;21.10;64.80
28071;DHT22;15383;48.408;9.968;2023-06-19T05:50:53;21.20;65.00
28071;DHT22;15383;48.408;9.968;2023-06-19T05:53:57;21.10;65.00
28071;DHT22;15383;48.408;9.968;2023-06-19T05:56:31;21.20;64.90
28071;DHT22;15383;48.408;9.968;2023-06-19T05:59:23;21.20;65.20
28071;DHT22;15383;48.408;9.968;2023-06-19T06:01:50;21.20;65.30
28071;DHT22;15383;48.408;9.968;2023-06-19T06:04:21;21.10;65.80
28071;DHT22;15383;48.408;9.968;2023-06-19T06:06:47;21.20;65.60
28071;DHT22;15383;48.408;9.968;2023-06-19T06:09:36;21.20;65.90
28071;DHT22;15383;48.408;9.968;2023-06-19T06:12:01;21.20;66.00
28071;DHT22;15383;48.408;9.968;2023-06-19T06:14:56;21.20;65.70
28071;DHT22;15383;48.408;9.968;2023-06-19T06:17:22;21.20;66.10
28071;DHT22;15383;48.408;9.968;2023-06-19T06:19:47;21.10;66.00
28071;DHT22;15383;48.408;9.968;2023-06-19T06:22:13;21.10;65.90
28071;DHT22;15383;48.408;9.968;2023-06-19T06:24:39;21.10;66.40
28071;DHT22;15383;48.408;9.968;2023-06-19T06:27:08;21.20;66.10
28071;DHT22;15383;48.408;9.968;2023-06-19T06:29:34;21.20;66.20
28071;DHT22;15383;48.408;9.968;2023-06-19T06:32:06;21.20;66.40
28071;DHT22;15383;48.408;9.968;2023-06-19T06:34:37;21.10;66.40
28071;DHT22;15383;48.408;9.968;2023-06-19T06:37:14;21.20;66.30
28071;DHT22;15383;48.408;9.968;2023-06-19T06:39:44;21.10;66.20
28071;DHT22;15383;48.408;9.968;2023-06-19T06:42:30;21.20;66.90
28071;DHT22;15383;48.408;9.968;2023-06-19T06:44:56;21.10;66.90
28071;DHT22;15383;48.408;9.968;2023-06-19T06:47:25;21.10;66.70
28071;DHT22;15383;48.408;9.968;2023-06-19T06:50:08;21.20;67.40
28071;DHT22;15383;48.408;9.968;2023-06-19T06:52:41;21.20;66.90
28071;DHT22;15383;48.408;9.968;2023-06-19T06:55:07;21.10;66.70
28071;DHT22;15383;48.408;9.968;2023-06-19T06:57:33;21.10;66.50
28071;DHT22;15383;48.408;9.968;2023-06-19T06:59:58;21.20;66.70
28071;DHT22;15383;48.408;9.968;2023-06-19T07:02:33;21.20;66.70
28071;DHT22;15383;48.408;9.968;2023-06-19T07:04:59;21.20;67.20
28071;DHT22;15383;48.408;9.968;2023-06-19T07:07:35;21.20;67.10
28071;DHT22;15383;48.408;9.968;2023-06-19T07:10:04;21.20;67.20
28071;DHT22;15383;48.408;9.968;2023-06-19T07:12:48;21.40;67.50
28071;DHT22;15383;48.408;9.968;2023-06-19T07:15:16;21.20;67.10
28071;DHT22;15383;48.408;9.968;2023-06-19T07:17:43;21.20;67.20
28071;DHT22;15383;48.408;9.968;2023-06-19T07:20:09;21.20;67.40
28071;DHT22;15383;48.408;9.968;2023-06-19T07:22:42;21.30;67.40
28071;DHT22;15383;48.408;9.968;2023-06-19T07:25:09;21.20;67.30
28071;DHT22;15383;48.408;9.968;2023-06-19T07:27:44;21.30;67.50
28071;DHT22;15383;48.408;9.968;2023-06-19T07:30:10;21.30;67.30
28071;DHT22;15383;48.408;9.968;2023-06-19T07:32:44;21.30;67.60
28071;DHT22;15383;48.408;9.968;2023-06-19T07:35:22;21.50;67.90
28071;DHT22;15383;48.408;9.968;2023-06-19T07:37:58;21.30;67.80
28071;DHT22;15383;48.408;9.968;2023-06-19T07:40:24;21.30;67.70
28071;DHT22;15383;48.408;9.968;2023-06-19T07:43:02;21.30;67.50
28071;DHT22;15383;48.408;9.968;2023-06-19T07:45:28;21.50;67.60
28071;DHT22;15383;48.408;9.968;2023-06-19T07:47:54;21.30;67.30
28071;DHT22;15383;48.408;9.968;2023-06-19T07:50:29;21.30;67.30
28071;DHT22;15383;48.408;9.968;2023-06-19T07:52:58;21.30;67.30
28071;DHT22;15383;48.408;9.968;2023-06-19T07:55:24;21.30;67.40
28071;DHT22;15383;48.408;9.968;2023-06-19T07:57:52;21.30;67.40
28071;DHT22;15383;48.408;9.968;2023-06-19T08:00:35;21.30;67.50
28071;DHT22;15383;48.408;9.968;2023-06-19T08:03:01;21.30;67.50
28071;DHT22;15383;48.408;9.968;2023-06-19T08:05:36;21.30;67.40
28071;DHT22;15383;48.408;9.968;2023-06-19T08:08:01;21.30;67.60
28071;DHT22;15383;48.408;9.968;2023-06-19T08:10:36;21.30;67.40
28071;DHT22;15383;48.408;9.968;2023-06-19T08:13:05;21.30;67.50
28071;DHT22;15383;48.408;9.968;2023-06-19T08:15:37;21.30;67.60
28071;DHT22;15383;48.408;9.968;2023-06-19T08:18:13;21.40;67.60
28071;DHT22;15383;48.408;9.968;2023-06-19T08:20:59;21.40;67.50
28071;DHT22;15383;48.408;9.968;2023-06-19T08:23:25;21.40;67.60
28071;DHT22;15383;48.408;9.968;2023-06-19T08:25:51;21.40;67.70
28071;DHT22;15383;48.408;9.968;2023-06-19T08:28:25;21.40;67.80
28071;DHT22;15383;48.408;9.968;2023-06-19T08:31:11;21.40;68.10
28071;DHT22;15383;48.408;9.968;2023-06-19T08:33:40;21.50;68.10
28071;DHT22;15383;48.408;9.968;2023-06-19T08:36:06;21.50;68.20
28071;DHT22;15383;48.408;9.968;2023-06-19T08:38:32;21.50;68.30
28071;DHT22;15383;48.408;9.968;2023-06-19T08:41:12;21.50;68.60
28071;DHT22;15383;48.408;9.968;2023-06-19T08:43:41;21.50;68.40
28071;DHT22;15383;48.408;9.968;2023-06-19T08:46:17;21.50;68.50
28071;DHT22;15383;48.408;9.968;2023-06-19T08:48:58;21.60;68.60
28071;DHT22;15383;48.408;9.968;2023-06-19T08:51:44;21.60;69.40
28071;DHT22;15383;48.408;9.968;2023-06-19T08:54:22;21.70;68.60
28071;DHT22;15383;48.408;9.968;2023-06-19T08:56:48;21.60;68.70
28071;DHT22;15383;48.408;9.968;2023-06-19T08:59:15;21.60;68.70
28071;DHT22;15383;48.408;9.968;2023-06-19T09:05:56;21.70;69.10
28071;DHT22;15383;48.408;9.968;2023-06-19T09:08:05;21.90;69.20
28071;DHT22;15383;48.408;9.968;2023-06-19T09:11:03;22.20;69.60
28071;DHT22;15383;48.408;9.968;2023-06-19T09:14:07;21.70;69.40
28071;DHT22;15383;48.408;9.968;2023-06-19T09:16:39;21.70;69.80
28071;DHT22;15383;48.408;9.968;2023-06-19T09:19:25;21.80;69.70
28071;DHT22;15383;48.408;9.968;2023-06-19T09:21:51;21.70;69.90
28071;DHT22;15383;48.408;9.968;2023-06-19T09:24:20;21.90;70.00
28071;DHT22;15383;48.408;9.968;2023-06-19T09:27:04;21.80;70.20
28071;DHT22;15383;48.408;9.968;2023-06-19T09:29:40;21.90;70.20
28071;DHT22;15383;48.408;9.968;2023-06-19T09:32:31;21.90;70.40
28071;DHT22;15383;48.408;9.968;2023-06-19T09:35:21;22.40;70.70
28071;DHT22;15383;48.408;9.968;2023-06-19T09:38:17;22.00;70.80
28071;DHT22;15383;48.408;9.968;2023-06-19T09:41:25;22.00;70.60
28071;DHT22;15383;48.408;9.968;2023-06-19T09:44:03;22.10;70.70
28071;DHT22;15383;48.408;9.968;2023-06-19T09:46:54;22.10;70.80
28071;DHT22;15383;48.408;9.968;2023-06-19T09:49:42;22.10;70.80
28071;DHT22;15383;48.408;9.968;2023-06-19T09:52:48;22.10;70.80
28071;DHT22;15383;48.408;9.968;2023-06-19T09:56:01;22.20;70.70
28071;DHT22;15383;48.408;9.968;2023-06-19T09:58:48;22.20;71.10
28071;DHT22;15383;48.408;9.968;2023-06-19T10:01:37;22.40;71.10
28071;DHT22;15383;48.408;9.968;2023-06-19T10:04:07;22.20;71.00
28071;DHT22;15383;48.408;9.968;2023-06-19T10:06:47;22.80;71.50
28071;DHT22;15383;48.408;9.968;2023-06-19T10:10:28;22.30;71.30
28071;DHT22;15383;48.408;9.968;2023-06-19T10:12:47;22.30;71.70
28071;DHT22;15383;48.408;9.968;2023-06-19T10:15:31;22.30;71.60
28071;DHT22;15383;48.408;9.968;2023-06-19T10:18:06;22.40;71.60
28071;DHT22;15383;48.408;9.968;2023-06-19T10:20:41;22.40;71.60
28071;DHT22;15383;48.408;9.968;2023-06-19T12:51:08;22.40;71.80
28071;DHT22;15383;48.408;9.968;2023-06-19T12:53:33;22.40;72.30
28071;DHT22;15383;48.408;9.968;2023-06-19T12:55:59;22.50;72.80
28071;DHT22;15383;48.408;9.968;2023-06-19T12:58:25;22.60;72.70
28071;DHT22;15383;48.408;9.968;2023-06-19T14:23:40;22.20;70.70
28071;DHT22;15383;48.408;9.968;2023-06-19T14:26:11;22.20;70.70
28071;DHT22;15383;48.408;9.968;2023-06-19T14:39:32;22.20;70.40
28071;DHT22;15383;48.408;9.968;2023-06-19T14:42:17;22.20;70.30
28071;DHT22;15383;48.408;9.968;2023-06-19T14:51:13;22.20;70.20
28071;DHT22;15383;48.408;9.968;2023-06-19T14:54:18;22.20;70.20
28071;DHT22;15383;48.408;9.968;2023-06-19T14:56:54;22.20;70.10
28071;DHT22;15383;48.408;9.968;2023-06-19T14:59:23;22.20;70.10
28071;DHT22;15383;48.408;9.968;2023-06-19T15:01:48;22.20;70.00
28071;DHT22;15383;48.408;9.968;2023-06-19T15:04:14;22.40;69.10
28071;DHT22;15383;48.408;9.968;2023-06-19T15:06:40;22.50;68.40
28071;DHT22;15383;48.408;9.968;2023-06-19T15:09:05;22.60;69.80
28071;DHT22;15383;48.408;9.968;2023-06-19T15:11:34;22.60;68.70
28071;DHT22;15383;48.408;9.968;2023-06-19T15:14:08;22.70;68.60
28071;DHT22;15383;48.408;9.968;2023-06-19T15:16:33;22.60;67.80
28071;DHT22;15383;48.408;9.968;2023-06-19T15:18:59;22.60;67.70
28071;DHT22;15383;48.408;9.968;2023-06-19T15:21:24;22.70;67.70
28071;DHT22;15383;48.408;9.968;2023-06-19T15:24:10;22.70;68.00
28071;DHT22;15383;48.408;9.968;2023-06-19T15:26:35;22.70;68.50
28071;DHT22;15383;48.408;9.968;2023-06-19T15:29:04;22.80;69.60
28071;DHT22;15383;48.408;9.968;2023-06-19T15:31:49;22.80;69.10
28071;DHT22;15383;48.408;9.968;2023-06-19T15:34:15;22.80;68.60
28071;DHT22;15383;48.408;9.968;2023-06-19T15:36:43;22.80;68.20
28071;DHT22;15383;48.408;9.968;2023-06-19T15:39:19;22.90;69.00
28071;DHT22;15383;48.408;9.968;2023-06-19T15:41:57;22.80;68.40
28071;DHT22;15383;48.408;9.968;2023-06-19T15:44:23;22.70;67.70
28071;DHT22;15383;48.408;9.968;2023-06-19T15:46:49;22.80;67.50
28071;DHT22;15383;48.408;9.968;2023-06-19T15:49:14;22.80;69.40
28071;DHT22;15383;48.408;9.968;2023-06-19T15:51:40;22.90;68.50
28071;DHT22;15383;48.408;9.968;2023-06-19T15:54:09;22.80;68.10
28071;DHT22;15383;48.408;9.968;2023-06-19T15:56:38;22.80;68.10
28071;DHT22;15383;48.408;9.968;2023-06-19T15:59:05;22.80;67.80
28071;DHT22;15383;48.408;9.968;2023-06-19T16:01:30;22.80;67.60
28071;DHT22;15383;48.408;9.968;2023-06-19T16:03:59;22.80;67.10
28071;DHT22;15383;48.408;9.968;2023-06-19T16:06:29;22.80;67.60
28071;DHT22;15383;48.408;9.968;2023-06-19T16:09:02;22.80;67.20
28071;DHT22;15383;48.408;9.968;2023-06-19T16:11:47;22.80;67.20
28071;DHT22;15383;48.408;9.968;2023-06-19T16:14:16;22.80;66.90
28071;DHT22;15383;48.408;9.968;2023-06-19T16:17:04;22.80;66.60
28071;DHT22;15383;48.408;9.968;2023-06-19T16:19:33;22.80;66.70
28071;DHT22;15383;48.408;9.968;2023-06-19T16:21:59;22.80;66.70
28071;DHT22;15383;48.408;9.968;2023-06-19T16:24:45;22.80;66.40
28071;DHT22;15383;48.408;9.968;2023-06-19T16:27:11;22.80;66.90
28071;DHT22;15383;48.408;9.968;2023-06-19T16:29:36;22.90;67.60
28071;DHT22;15383;48.408;9.968;2023-06-19T16:32:22;22.80;67.50
28071;DHT22;15383;48.408;9.968;2023-06-19T16:34:51;22.90;67.70
28071;DHT22;15383;48.408;9.968;2023-06-19T16:37:17;22.90;67.80
28071;DHT22;15383;48.408;9.968;2023-06-19T16:39:44;22.90;67.90
28071;DHT22;15383;48.408;9.968;2023-06-19T16:42:09;22.90;67.10
28071;DHT22;15383;48.408;9.968;2023-06-19T16:44:41;22.80;67.30
28071;DHT22;15383;48.408;9.968;2023-06-19T16:47:10;22.80;67.60
28071;DHT22;15383;48.408;9.968;2023-06-19T16:49:36;22.80;67.40
28071;DHT22;15383;48.408;9.968;2023-06-19T16:52:04;22.90;67.60
28071;DHT22;15383;48.408;9.968;2023-06-19T16:54:53;22.90;68.90
28071;DHT22;15383;48.408;9.968;2023-06-19T16:57:44;22.80;68.80
28071;DHT22;15383;48.408;9.968;2023-06-19T17:00:30;22.90;69.00
28071;DHT22;15383;48.408;9.968;2023-06-19T17:02:56;22.90;69.40
28071;DHT22;15383;48.408;9.968;2023-06-19T17:05:25;22.90;69.40
28071;DHT22;15383;48.408;9.968;2023-06-19T17:07:54;22.90;69.50
28071;DHT22;15383;48.408;9.968;2023-06-19T17:10:42;22.80;69.60
28071;DHT22;15383;48.408;9.968;2023-06-19T17:13:20;22.80;69.70
28071;DHT22;15383;48.408;9.968;2023-06-19T17:15:49;22.80;69.70
28071;DHT22;15383;48.408;9.968;2023-06-19T17:18:17;22.80;69.50
28071;DHT22;15383;48.408;9.968;2023-06-19T17:21:03;22.80;69.80
28071;DHT22;15383;48.408;9.968;2023-06-19T17:23:51;22.80;69.90
28071;DHT22;15383;48.408;9.968;2023-06-19T17:26:34;22.80;70.50
28071;DHT22;15383;48.408;9.968;2023-06-19T17:29:25;22.70;70.50
28071;DHT22;15383;48.408;9.968;2023-06-19T17:34:51;22.80;70.80
28071;DHT22;15383;48.408;9.968;2023-06-19T17:37:38;22.90;70.80
28071;DHT22;15383;48.408;9.968;2023-06-19T17:40:05;22.90;70.80
28071;DHT22;15383;48.408;9.968;2023-06-19T17:42:50;22.90;71.00
28071;DHT22;15383;48.408;9.968;2023-06-19T17:45:16;22.80;71.00
28071;DHT22;15383;48.408;9.968;2023-06-19T17:47:48;22.80;71.00
28071;DHT22;15383;48.408;9.968;2023-06-19T17:50:17;22.90;71.20
28071;DHT22;15383;48.408;9.968;2023-06-19T17:56:09;22.90;71.40
28071;DHT22;15383;48.408;9.968;2023-06-19T17:58:35;22.90;71.90
28071;DHT22;15383;48.408;9.968;2023-06-19T18:01:06;22.90;72.40
28071;DHT22;15383;48.408;9.968;2023-06-19T18:03:32;22.80;72.60
28071;DHT22;15383;48.408;9.968;2023-06-19T18:05:58;22.90;72.80
28071;DHT22;15383;48.408;9.968;2023-06-19T18:08:24;22.90;73.40
28071;DHT22;15383;48.408;9.968;2023-06-19T18:10:52;22.90;73.70
28071;DHT22;15383;48.408;9.968;2023-06-19T18:13:27;22.90;74.00
28071;DHT22;15383;48.408;9.968;2023-06-19T18:19:15;22.80;73.60
28071;DHT22;15383;48.408;9.968;2023-06-19T18:22:18;22.70;73.60
28071;DHT22;15383;48.408;9.968;2023-06-19T18:25:07;22.80;73.70
28071;DHT22;15383;48.408;9.968;2023-06-19T18:27:51;22.70;73.50
28071;DHT22;15383;48.408;9.968;2023-06-19T18:30:30;22.60;73.40
28071;DHT22;15383;48.408;9.968;2023-06-19T18:33:05;22.60;73.30
28071;DHT22;15383;48.408;9.968;2023-06-19T18:38:27;22.60;73.20
28071;DHT22;15383;48.408;9.968;2023-06-19T18:41:02;22.80;73.30
28071;DHT22;15383;48.408;9.968;2023-06-19T18:43:57;22.60;73.00
28071;DHT22;15383;48.408;9.968;2023-06-19T18:46:42;22.60;72.90
28071;DHT22;15383;48.408;9.968;2023-06-19T18:49:16;22.60;72.90
28071;DHT22;15383;48.408;9.968;2023-06-19T18:51:42;22.60;72.80
28071;DHT22;15383;48.408;9.968;2023-06-19T18:57:00;22.50;72.70
28071;DHT22;15383;48.408;9.968;2023-06-19T18:59:35;22.50;72.60
28071;DHT22;15383;48.408;9.968;2023-06-19T19:02:36;22.50;72.50
28071;DHT22;15383;48.408;9.968;2023-06-19T19:08:01;22.50;72.50
28071;DHT22;15383;48.408;9.968;2023-06-19T19:10:51;22.50;72.30
28071;DHT22;15383;48.408;9.968;2023-06-19T19:13:36;22.50;72.20
28071;DHT22;15383;48.408;9.968;2023-06-19T19:16:08;22.50;72.20
28071;DHT22;15383;48.408;9.968;2023-06-19T19:18:34;22.50;72.10
28071;DHT22;15383;48.408;9.968;2023-06-19T19:21:49;22.40;71.90
28071;DHT22;15383;48.408;9.968;2023-06-19T19:24:35;22.50;72.00
28071;DHT22;15383;48.408;9.968;2023-06-19T19:27:10;22.40;71.90
28071;DHT22;15383;48.408;9.968;2023-06-19T19:32:20;22.40;71.90
28071;DHT22;15383;48.408;9.968;2023-06-19T19:34:55;22.40;71.90
28071;DHT22;15383;48.408;9.968;2023-06-19T19:37:35;22.40;71.80
28071;DHT22;15383;48.408;9.968;2023-06-19T19:43:38;22.40;71.70
28071;DHT22;15383;48.408;9.968;2023-06-19T19:46:13;22.40;71.60
28071;DHT22;15383;48.408;9.968;2023-06-19T19:48:39;22.40;71.60
28071;DHT22;15383;48.408;9.968;2023-06-19T19:51:34;22.30;71.50
28071;DHT22;15383;48.408;9.968;2023-06-19T19:54:10;22.40;71.60
28071;DHT22;15383;48.408;9.968;2023-06-19T19:56:55;22.40;71.60
28071;DHT22;15383;48.408;9.968;2023-06-19T19:59:53;22.40;71.60
28071;DHT22;15383;48.408;9.968;2023-06-19T20:05:08;22.40;71.70
28071;DHT22;15383;48.408;9.968;2023-06-19T20:07:53;22.30;71.50
28071;DHT22;15383;48.408;9.968;2023-06-19T20:10:19;22.30;72.30
28071;DHT22;15383;48.408;9.968;2023-06-19T20:15:40;22.30;71.50
28071;DHT22;15383;48.408;9.968;2023-06-19T20:18:06;22.30;71.50
28071;DHT22;15383;48.408;9.968;2023-06-19T20:20:41;22.30;71.50
28071;DHT22;15383;48.408;9.968;2023-06-19T20:23:29;22.30;71.40
28071;DHT22;15383;48.408;9.968;2023-06-19T20:25:58;22.30;71.50
28071;DHT22;15383;48.408;9.968;2023-06-19T20:28:32;22.20;71.40
28071;DHT22;15383;48.408;9.968;2023-06-19T20:31:13;22.30;71.50
28071;DHT22;15383;48.408;9.968;2023-06-19T20:33:41;22.40;71.60
28071;DHT22;15383;48.408;9.968;2023-06-19T20:39:02;22.30;71.60
28071;DHT22;15383;48.408;9.968;2023-06-19T20:41:35;22.20;71.60
28071;DHT22;15383;48.408;9.968;2023-06-19T20:44:26;22.20;71.60
28071;DHT22;15383;48.408;9.968;2023-06-19T20:47:21;22.50;71.80
28071;DHT22;15383;48.408;9.968;2023-06-19T20:50:06;22.20;71.50
28071;DHT22;15383;48.408;9.968;2023-06-19T20:52:57;22.20;71.60
28071;DHT22;15383;48.408;9.968;2023-06-19T20:55:32;22.20;71.60
28071;DHT22;15383;48.408;9.968;2023-06-19T20:58:07;22.20;71.60
28071;DHT22;15383;48.408;9.968;2023-06-19T21:00:53;22.20;71.70
28071;DHT22;15383;48.408;9.968;2023-06-19T21:03:25;22.20;71.70
28071;DHT22;15383;48.408;9.968;2023-06-19T21:06:15;22.20;71.70
28071;DHT22;15383;48.408;9.968;2023-06-19T21:11:44;22.20;71.70
28071;DHT22;15383;48.408;9.968;2023-06-19T21:14:29;22.20;72.50
28071;DHT22;15383;48.408;9.968;2023-06-19T21:17:09;22.20;71.80
28071;DHT22;15383;48.408;9.968;2023-06-19T21:20:01;22.20;71.80
28071;DHT22;15383;48.408;9.968;2023-06-19T21:22:48;22.20;71.90
28071;DHT22;15383;48.408;9.968;2023-06-19T21:25:39;22.20;71.90
28071;DHT22;15383;48.408;9.968;2023-06-19T21:28:31;22.10;71.70